Timeline UpdatesTrip UpdatesNews PostsPvt PostsTravel TipsAdmin PostsConv PostsFollowed PostsChat RequestsBlog PostsPNR Posts

Disclaimer
Search
 
 
Wed Apr 16, 2014 18:38:57 ISTHomeTrainsΣChainsAtlasPNRForumGalleryNewsFAQTripsMembersLoginFeedback
No Recent News for this Train
Other Trains in the News **new
Latest...
.
Fri Dec 13, 2013 (03:40PM)
⇐ Return Journey: Train# 12834

12833/Ahmedabad- Howrah SF Express

Aug 26 2013 (10:42AM)
Change Departure Station:
Change Arrival Station:
Post a Train Travel TipPost a Train Travel Tip **new
Post a Comment/Question/Picture/VideoPost a Comment/Question/Picture/Video
Pantry/Catering
✓ Pantry Car Avbl
✓ Catering Avbl
RSA - Rake Sharing
Rake/Coach Composition
LOCO(SRC WAP-4)-SLR-LD-GEN-A2-A1-B2-B1-S13-S12-PC-S11-S10-S9-S8-S7-S6-S5-S4-S3-S2-S1-GEN-SLR As per Entry# 262159
Loco
Loco: SRC WAP 4 ... Entry# 289462
News    PNR    Forum    Time-Table    Availability    Fare Chart    Map    Arr/Dep History    Trips    Gallery    ΣChains    X/O    Timeline    
Travel Time: 11h 42m    14 halts    Distance: 677 km    Avg Speed: 57 km/hr
Type: SuperFast
Zone: SER/South Eastern
Departs @ 01:48 (Avg 33m late)
Platform# ???
SMTWTFS
Naila/NIA 
Arrives @ 13:30 (Avg 28m late)
Platform# 17
SMTWTFS
Kolkata Howrah Junction/HWH 

14 halts. 110 intermediate Stations between Naila and Kolkata Howrah Junction

Show ALL intermediate Stations  Show Old Time-Table

#CodeStation NameX/OArrivesAvgDepartsAvgHaltPFDay#KmSpeedElevZoneAddress
1ADIAhmedabad Junction (12)  -23:55+761-1411.52451mWRAhmedabad, Gujarat
2MANManinagar (2)  00:03+1500:05+152m12-1408.36950mWRAhmadabad, Gujarat
3NDNadiad Junction (4)X  00:42+1600:44+162m12-1365.96237mWRNadiad, Gujarat
4ANNDAnand Junction (6)  01:02+1601:04+222m12-1347.44944mWRAnand, Gujarat
5BRCVadodara Junction (7)  01:48+2001:55+217m12-1311.78836mWRVadodara, Gujarat
6BHBharuch Junction (5)X  02:43+2102:45+202m42-1241.25919mWRBharuch, Gujarat
7STSurat (4)X  03:45+1503:55+1510m32-1181.93419mWRSurat 395001, Gujarat
8UDNUdhna Junction (3)  04:02+2004:04+222m32-1177.96316mWRUdhna 394210, Gujarat
9BIYBardoli (2)  04:30+2704:32+282m12-1150.75935mWRNear Bardoli Sugar Factory Bardoli, Gujarat
10MIDMadhi (1)X  04:47+3104:49+322m12-1135.85345mWRMadhi, Gujarat
11VYAVyara (2)X  05:06+3605:08+352m22-1120.95590mWRVyara, Gujarat
12NWUNavapur (2)X  05:54+3705:56+482m--2-1079.049124mWRNavapur, Gujarat
13NDBNandurbar (3)  07:07+3007:15+298m22-1021.146203mWRNandurbar, Maharashtra
14DDEDondaicha (2)  08:00+1808:02+202m12-986.745163mWRDondaicha, Maharashtra
15SNKSindkheda (1)  08:28+1508:30+162m12-967.353178mWRState Highway 11, Maharashtra
16ANAmalner (1)  09:17+1009:20+113m12-925.762188mWRAmalner, Maharashtra
17DXGDharangaon  09:44+1809:46+172m12-900.834217mWRDharangaon, Maharashtra
18JLJalgaon Junction (4)X  10:38+1010:40+142m12-871.158213mCRJalgaon 425001, Maharashtra
19BSLBhusaval Junction (8)  11:05+1411:20+1715m12-847.065208mCRBhusaval 425201, Maharashtra
20MKUMalkapur (2)X  12:06+2012:08+202m22-797.184252mCRMalkapur, Maharashtra
21NNNandura  12:28+2312:30+232m22-769.292267mCRNandura, Maharashtra
22JMJalamb Junction (3)  12:38+2612:40+262m12-757.092259mCRJalamb, Maharashtra
23SEGShegaon (2)X  12:48+2812:50+282m22-744.789276mCRShegaon 444203, Maharashtra
24AKAkola Junction (7)XO  13:15+3413:20+345m22-707.459284mCRAkola-444001, Maharashtra
25MZRMurtizapur (3)XO  13:58+2814:00+282m12-670.246303mCRMurtajapur, Maharashtra
26BDBadnera Junction (4)X  14:55+1315:00+145m22-628.586335mCRBadnera (Amravati) 444701, Maharashtra
27CNDChandur (2)  15:20+2215:22+222m12-599.777331mCRAmravati Distt, Maharashtra
28DMNDhamangaon (2)X  15:35+2315:37+232m22-583.180300mCRDhamangaon, Maharashtra
29PLOPulgaon Junction (3)X  15:52+2515:54+252m12-563.168273mCRPulgaon, Maharashtra
30WRWardha Junction  16:20+2216:23+223m32-533.575289mCRWardha 442001, Maharashtra
31AJNIAjni (3)  17:24+1817:26+182m12-457.78310mCRNagpur 440003, Maharashtra
32NGPNagpur Junction (9)X  17:50+1518:00+1910m12-454.748314mCRNagpur 440001, Maharashtra
33KPKamptee (3)X  18:18+3018:20+302m--2-440.396290mSECRMH 441001, Maharashtra
34BRDBhandara Road (2)X  18:50+3418:52+342m--2-392.477266mSECRState Highway 252, Maharashtra
35TMRTumsar Road (3)XO  19:06+3419:08+342m--2-374.581267mSECRBhandara, Maharashtra
36TROTirora (3)  19:23+3819:25+382m--2-354.157282mSECRDist Gondiya, Maharashtra
37GGondia Junction (7)X  19:56+3219:58+332m22-324.891316mSECRGondia 441601, Maharashtra
38AGNAmgaon (2)X  20:13+3620:15+362m--2-302.072317mSECRGondia, Maharashtra
39DGGDongargarh (2)  20:57+3520:59+352m--2-251.586353mSECRDongargarh, Chhattisgarh
40RJNRaj Nandgaon (3)  21:21+3321:23+332m12-220.039313mSECRRajnandgaon, Chhattisgarh
41DURGDurg Junction (6)  22:10+2022:15+225m32-189.660299mSECRPh: 91-788-2322059, Chhattisgarh
42BPHBBhilai Power House (3)X  22:24+2422:26+242m12-180.658312mSECRBhilai, Chhattisgarh
43RRaipur Junction (6)X  22:55+2323:05+2410m62-152.679297mSECRRaipur, Chhattisgarh
44TLDTilda (3)  23:34+3223:36+322m--2-114.487291mSECRBanjari Rd, Chhattisgarh
45BYTBhatapara (4)  23:54+3323:56+332m--2-88.447270mSECRBanjari Road, Chhattisgarh
46BSPBilaspur Junction (8)X  00:55+2401:10+3115m23-42.278271mSECRBilaspur, Chhattisgarh
47AKTAkaltara (4)  01:31+3301:33+342m--3-14.969284mSECRDist. Janjgir Champa, Chhattisgarh
48NIA»Naila»X  01:46+3301:48+332m--30.054273mSECRJanjgir, Chhattisgarh
49CPHChampa Junction (3)X  02:00+3302:03+413m--310.893264mSECRNational Highway 200 (07819-245767), Chhattisgarh
50BUABaradwarX  02:13+4502:15+452m--326.486256mSECRJanjgir-Champa, Chhattisgarh
51KHSKharsia  02:36+4802:38+492m--356.685259mSECRNational Highway 200, Chhattisgarh
52RIGRaigarh (3)XO  03:02+5603:07+555m--390.690220mSECRRaigarh, Chhattisgarh
53BPHBelpahar  03:41+5903:43+592m--3141.754235mSECRBelpahar, Odisha
54BRJNBrajrajnagarX  03:53+5703:55+582m--3150.611212mSECRBrajrajnagar, Odisha
55JSGJharsuguda Junction (5)X  05:00+2005:02+222m23162.281236mSERJharsuguda, Odisha
56BMBBamra (3)  05:29+2705:31+272m--3198.880259mSERBamra PH : 06642-229268, Odisha
57GPRaj Gangpur (3)X  05:57+2705:59+282m23233.454237mSERRaj Ganpur, Odisha
58ROURourkela Junction (5)  06:32+2406:47+2515m13263.275198mSERRourkela, Odisha
59CKPChakradharpur (3)X  08:08+2608:15+277m23364.257235mSERChakradharpur (West Singhbhum), Jharkhand
60TATATatanagar Junction (5)  09:20+2409:35+2315m53426.579164mSER91-657-2423026, Jharkhand
61KGPKharagpur Junction (10)  11:17+3111:22+315m63561.67342mSERKharagpur, West Bengal
62SRCKolkata Santragachi Junction (6)  12:50+3112:52+292m63669.2127mSERDist: Howrah - 711104, West Bengal
63HWH•Kolkata Howrah Junction (23)•  13:30+28-173676.6-10mERHowrah 711101, West Bengal
Scroll to Top
Scroll to Bottom